createdAt,value
2023-04-14T00:02:24.942Z,31.73
2023-04-14T00:04:54.127Z,30.75
2023-04-14T00:07:21.722Z,33.03
2023-04-14T00:09:49.042Z,45.10
2023-04-14T00:12:16.478Z,39.53
2023-04-14T00:14:43.932Z,29.80
2023-04-14T00:17:11.827Z,39.13
2023-04-14T00:19:39.212Z,35.72
2023-04-14T00:22:06.674Z,33.72
2023-04-14T00:24:40.864Z,29.70
2023-04-14T00:27:08.137Z,44.70
2023-04-14T00:29:35.449Z,32.85
2023-04-14T00:32:03.263Z,47.78
2023-04-14T00:34:32.945Z,29.33
2023-04-14T00:37:00.321Z,29.48
2023-04-14T00:39:30.558Z,27.77
2023-04-14T00:41:57.860Z,32.10
2023-04-14T00:44:25.669Z,58.15
2023-04-14T00:46:53.213Z,36.92
2023-04-14T00:49:20.592Z,31.08
2023-04-14T00:51:48.347Z,46.33
2023-04-14T00:54:18.789Z,31.35
2023-04-14T00:56:51.865Z,34.67
2023-04-14T00:59:19.379Z,32.08
2023-04-14T01:01:48.256Z,46.45
2023-04-14T01:04:20.946Z,34.88
2023-04-14T01:06:48.536Z,43.08
2023-04-14T01:09:16.502Z,30.90
2023-04-14T01:12:19.939Z,34.17
2023-04-14T01:15:43.775Z,36.97
2023-04-14T01:18:24.582Z,36.60
2023-04-14T01:23:41.141Z,38.22
2023-04-14T01:26:19.100Z,33.72
2023-04-14T01:29:46.775Z,38.78
2023-04-14T01:32:23.344Z,33.92
2023-04-14T01:35:11.674Z,36.53
2023-04-14T01:37:47.555Z,35.60
2023-04-14T01:40:19.871Z,36.22
2023-04-14T01:42:59.464Z,36.15
2023-04-14T01:45:32.713Z,38.03
2023-04-14T01:48:00.594Z,36.97
2023-04-14T01:50:30.197Z,34.92
2023-04-14T01:53:01.317Z,33.67
2023-04-14T01:55:30.911Z,33.50
2023-04-14T01:57:59.434Z,34.78
2023-04-14T02:00:28.131Z,33.08
2023-04-14T02:02:56.911Z,34.28
2023-04-14T02:05:25.745Z,34.63
2023-04-14T02:07:55.134Z,35.15
2023-04-14T02:10:23.415Z,34.08
2023-04-14T02:12:55.027Z,34.15
2023-04-14T02:15:24.006Z,35.78
2023-04-14T02:17:52.381Z,33.90
2023-04-14T02:20:21.949Z,35.05
2023-04-14T02:22:49.455Z,34.45
2023-04-14T02:25:16.882Z,34.22
2023-04-14T02:27:54.898Z,34.33
2023-04-14T02:30:32.053Z,33.65
2023-04-14T02:33:11.432Z,33.78
2023-04-14T02:36:28.150Z,36.33
2023-04-14T02:39:00.992Z,33.50
2023-04-14T02:41:31.885Z,35.63
2023-04-14T02:46:55.936Z,33.72
2023-04-14T02:49:25.197Z,36.92
2023-04-14T02:51:54.047Z,32.95
2023-04-14T02:54:22.694Z,35.13
2023-04-14T02:56:51.180Z,37.13
2023-04-14T02:59:22.689Z,36.15
2023-04-14T03:02:06.193Z,35.85
2023-04-14T03:04:39.322Z,33.85
2023-04-14T03:07:16.636Z,36.10
2023-04-14T03:09:45.023Z,36.60
2023-04-14T03:12:14.877Z,36.17
2023-04-14T03:14:44.578Z,33.75
2023-04-14T03:17:14.750Z,36.80
2023-04-14T03:19:44.106Z,36.38
2023-04-14T03:22:13.051Z,36.20
2023-04-14T03:24:42.250Z,38.72
2023-04-14T03:27:18.907Z,41.75
2023-04-14T03:29:51.858Z,41.83
2023-04-14T03:32:22.496Z,42.20
2023-04-14T03:37:29.145Z,38.10
2023-04-14T03:40:00.759Z,37.85
2023-04-14T03:42:31.529Z,40.67
2023-04-14T03:45:00.708Z,39.58
2023-04-14T03:47:31.848Z,40.28
2023-04-14T03:50:05.022Z,41.80
2023-04-14T03:52:36.296Z,41.10
2023-04-14T03:55:06.898Z,40.53
2023-04-14T03:57:37.723Z,41.60
2023-04-14T04:00:09.028Z,38.67
2023-04-14T04:02:45.211Z,41.45
2023-04-14T04:05:13.691Z,35.25
2023-04-14T04:07:43.125Z,38.00
2023-04-14T04:10:13.301Z,36.90
2023-04-14T04:12:44.266Z,36.25
2023-04-14T04:15:13.869Z,35.97
2023-04-14T04:17:43.507Z,37.28
2023-04-14T04:20:16.041Z,35.58
2023-04-14T04:22:47.616Z,35.45
2023-04-14T04:25:15.794Z,38.70
2023-04-14T04:27:50.887Z,40.08
2023-04-14T04:30:20.036Z,39.45
2023-04-14T04:32:48.566Z,40.20
2023-04-14T04:35:17.423Z,39.17
2023-04-14T04:37:47.728Z,37.88
2023-04-14T04:40:15.594Z,37.55
2023-04-14T04:42:44.020Z,36.08
2023-04-14T04:45:44.193Z,36.53
2023-04-14T04:48:11.510Z,35.90
2023-04-14T04:50:42.471Z,37.83
2023-04-14T04:53:09.897Z,36.65
2023-04-14T04:55:37.128Z,37.20
2023-04-14T04:58:04.425Z,35.80
2023-04-14T05:00:31.706Z,34.67
2023-04-14T05:02:59.226Z,31.77
2023-04-14T05:05:27.302Z,30.63
2023-04-14T05:07:54.977Z,29.08
2023-04-14T05:10:23.276Z,28.42
2023-04-14T05:12:50.532Z,26.27
2023-04-14T05:15:17.920Z,25.35
2023-04-14T05:17:45.897Z,25.40
2023-04-14T05:20:13.942Z,24.50
2023-04-14T05:22:41.820Z,25.83
2023-04-14T05:25:09.774Z,26.20
2023-04-14T05:27:37.065Z,24.65
2023-04-14T05:30:05.007Z,22.17
2023-04-14T05:32:32.253Z,22.80
2023-04-14T05:34:59.739Z,24.48
2023-04-14T05:37:30.092Z,23.00
2023-04-14T05:39:57.413Z,23.08
2023-04-14T05:42:24.641Z,21.92
2023-04-14T05:44:52.145Z,23.80
2023-04-14T05:47:19.419Z,22.80
2023-04-14T05:49:46.653Z,24.77
2023-04-14T05:52:13.879Z,24.13
2023-04-14T05:54:42.955Z,25.75
2023-04-14T05:57:10.685Z,23.80
2023-04-14T05:59:37.884Z,24.95
2023-04-14T06:02:07.505Z,25.13
2023-04-14T06:04:35.072Z,24.60
2023-04-14T06:07:03.119Z,24.52
2023-04-14T06:09:30.294Z,25.73
2023-04-14T06:11:57.614Z,24.00
2023-04-14T06:14:25.392Z,23.83
2023-04-14T06:16:52.742Z,22.15
2023-04-14T06:19:20.232Z,22.27
2023-04-14T06:21:47.386Z,22.98
2023-04-14T06:24:14.613Z,24.50
2023-04-14T06:26:42.551Z,24.02
2023-04-14T06:29:09.863Z,23.45
2023-04-14T06:31:37.131Z,23.20
2023-04-14T06:34:04.403Z,22.50
2023-04-14T06:36:32.296Z,21.85
2023-04-14T06:39:00.660Z,23.27
2023-04-14T06:41:28.020Z,22.75
2023-04-14T06:43:55.917Z,23.73
2023-04-14T06:46:23.261Z,23.17
2023-04-14T06:48:50.669Z,23.25
2023-04-14T06:51:18.929Z,23.95
2023-04-14T06:53:46.355Z,22.08
2023-04-14T06:56:13.793Z,24.77
2023-04-14T06:58:41.198Z,24.65
2023-04-14T07:01:08.590Z,23.08
2023-04-14T07:03:35.930Z,22.67
2023-04-14T07:06:04.716Z,23.95
2023-04-14T07:08:33.210Z,23.00
2023-04-14T07:11:03.040Z,24.27
2023-04-14T07:13:30.555Z,23.03
2023-04-14T07:15:59.256Z,26.67
2023-04-14T07:18:26.580Z,25.75
2023-04-14T07:20:54.339Z,26.17
2023-04-14T07:23:22.798Z,24.88
2023-04-14T07:25:56.244Z,23.33
2023-04-14T07:28:25.191Z,24.58
2023-04-14T07:30:53.336Z,25.58
2023-04-14T07:33:22.499Z,25.25
2023-04-14T07:36:02.046Z,26.30
2023-04-14T07:38:33.073Z,25.17
2023-04-14T07:41:04.333Z,24.35
2023-04-14T07:43:35.268Z,24.25
2023-04-14T07:46:07.789Z,24.20
2023-04-14T07:48:37.491Z,24.98
2023-04-14T07:51:06.542Z,22.20
2023-04-14T07:53:34.560Z,23.25
2023-04-14T07:56:01.999Z,24.45
2023-04-14T07:58:29.891Z,23.38
2023-04-14T08:00:57.620Z,24.15
2023-04-14T08:03:25.122Z,25.42
2023-04-14T08:05:52.674Z,23.13
2023-04-14T08:08:20.111Z,22.80
2023-04-14T08:10:47.545Z,22.98
2023-04-14T08:13:14.765Z,23.80
2023-04-14T08:15:42.186Z,22.60
2023-04-14T08:18:09.652Z,23.10
2023-04-14T08:20:38.072Z,23.50
2023-04-14T08:23:05.447Z,24.73
2023-04-14T08:25:32.760Z,24.58
2023-04-14T08:28:00.144Z,25.23
2023-04-14T08:30:27.501Z,24.63
2023-04-14T08:32:58.887Z,22.00
2023-04-14T08:35:41.015Z,21.30
2023-04-14T08:38:09.889Z,19.48
2023-04-14T08:40:42.737Z,18.88
2023-04-14T08:43:13.216Z,18.38
2023-04-14T08:45:43.553Z,20.45
2023-04-14T08:48:15.621Z,22.67
2023-04-14T08:51:22.259Z,21.48
2023-04-14T08:53:51.647Z,23.30
2023-04-14T08:56:21.109Z,22.63
2023-04-14T08:58:49.116Z,19.88
2023-04-14T09:01:16.843Z,19.95
2023-04-14T09:03:44.883Z,19.17
2023-04-14T09:06:14.068Z,19.23
2023-04-14T09:08:41.349Z,18.83
2023-04-14T09:11:09.673Z,18.65
2023-04-14T09:13:38.100Z,19.15
2023-04-14T09:16:06.148Z,19.27
2023-04-14T09:18:34.838Z,20.92
2023-04-14T09:21:48.988Z,20.45
2023-04-14T09:23:52.035Z,17.67
2023-04-14T09:26:19.430Z,15.77
2023-04-14T09:28:47.472Z,13.45
2023-04-14T09:31:14.903Z,14.73
2023-04-14T09:33:50.475Z,16.65
2023-04-14T09:36:23.505Z,18.23
2023-04-14T09:38:51.962Z,15.75
2023-04-14T09:41:22.580Z,14.90
2023-04-14T09:43:50.753Z,14.57
2023-04-14T09:46:18.172Z,14.15
2023-04-14T09:48:56.382Z,14.02
2023-04-14T09:51:28.451Z,14.15
2023-04-14T09:54:02.581Z,14.90
2023-04-14T09:56:30.339Z,13.60
2023-04-14T09:59:01.445Z,14.20
2023-04-14T10:01:33.735Z,14.82
2023-04-14T10:04:03.131Z,13.70
2023-04-14T10:06:33.822Z,13.27
2023-04-14T10:09:02.136Z,14.38
2023-04-14T10:11:33.067Z,14.25
2023-04-14T10:14:06.459Z,13.63
2023-04-14T10:16:34.741Z,13.73
2023-04-14T10:19:03.049Z,13.95
2023-04-14T10:21:30.892Z,12.10
2023-04-14T10:23:58.525Z,13.65
2023-04-14T10:26:26.787Z,14.82
2023-04-14T10:28:56.335Z,13.23
2023-04-14T10:31:33.338Z,11.90
2023-04-14T10:34:14.231Z,11.43
2023-04-14T10:36:42.889Z,12.55
2023-04-14T10:39:12.321Z,14.63
2023-04-14T10:41:52.140Z,12.63
2023-04-14T10:44:35.150Z,13.30
2023-04-14T10:47:10.167Z,13.88
2023-04-14T10:49:39.668Z,13.95
2023-04-14T10:52:15.852Z,12.05
2023-04-14T10:55:08.957Z,11.32
2023-04-14T10:57:45.855Z,13.32
2023-04-14T11:00:25.395Z,13.82
2023-04-14T11:03:12.001Z,12.73
2023-04-14T11:05:45.068Z,12.52
2023-04-14T11:08:35.554Z,12.95
2023-04-14T11:13:35.442Z,14.20
2023-04-14T11:16:04.122Z,13.82
2023-04-14T11:18:35.867Z,13.85
2023-04-14T11:21:16.125Z,11.63
2023-04-14T11:26:14.422Z,11.13
2023-04-14T11:28:44.642Z,11.85
2023-04-14T11:31:15.169Z,10.57
2023-04-14T11:36:13.054Z,11.07
2023-04-14T11:38:40.990Z,9.98
2023-04-14T11:41:10.134Z,10.48
2023-04-14T11:43:46.683Z,11.75
2023-04-14T11:46:15.889Z,9.13
2023-04-14T11:48:43.228Z,10.20
2023-04-14T11:51:10.622Z,11.85
2023-04-14T11:53:40.672Z,10.45
2023-04-14T11:56:13.172Z,9.85
2023-04-14T11:58:40.921Z,7.25
2023-04-14T12:01:09.034Z,8.80
2023-04-14T12:03:39.283Z,8.32
2023-04-14T12:06:07.193Z,7.50
2023-04-14T12:08:36.296Z,6.20
2023-04-14T12:11:15.351Z,7.07
2023-04-14T12:13:44.348Z,7.05
2023-04-14T12:16:16.895Z,5.70
2023-04-14T12:18:44.916Z,5.22
2023-04-14T12:21:19.018Z,5.32
2023-04-14T12:23:49.371Z,5.25
2023-04-14T12:26:17.230Z,5.45
2023-04-14T12:28:45.121Z,5.22
2023-04-14T12:31:12.521Z,5.03
2023-04-14T12:33:39.878Z,5.57
2023-04-14T12:36:14.149Z,4.95
2023-04-14T12:38:41.760Z,4.65
2023-04-14T12:41:09.096Z,5.10
2023-04-14T12:43:38.699Z,5.35
2023-04-14T12:46:08.081Z,5.30
2023-04-14T12:48:43.743Z,4.50
2023-04-14T12:51:13.523Z,5.47
2023-04-14T12:53:42.581Z,5.07
2023-04-14T12:56:22.698Z,5.13
2023-04-14T12:58:51.350Z,5.10
2023-04-14T13:01:23.814Z,4.43
2023-04-14T13:03:56.058Z,4.78
2023-04-14T13:06:25.073Z,4.30
2023-04-14T13:08:54.196Z,4.80
2023-04-14T13:11:23.708Z,5.07
2023-04-14T13:13:52.646Z,5.80
2023-04-14T13:16:21.000Z,4.53
2023-04-14T13:18:49.014Z,4.40
2023-04-14T13:21:16.942Z,4.70
2023-04-14T13:23:44.445Z,5.22
2023-04-14T13:26:12.698Z,4.65
2023-04-14T13:28:40.431Z,4.78
2023-04-14T13:31:07.847Z,4.88
2023-04-14T13:33:35.247Z,4.57
2023-04-14T13:36:03.500Z,4.32
2023-04-14T13:38:31.240Z,4.53
2023-04-14T13:40:58.690Z,4.50
2023-04-14T13:43:26.355Z,4.10
2023-04-14T13:45:58.106Z,4.00
2023-04-14T13:48:26.301Z,3.90
2023-04-14T13:50:54.513Z,4.55
2023-04-14T13:53:21.803Z,4.07
2023-04-14T13:55:49.108Z,4.20
2023-04-14T13:58:16.383Z,4.15
2023-04-14T14:00:43.701Z,4.40
2023-04-14T14:03:11.126Z,4.18
2023-04-14T14:05:38.458Z,4.07
2023-04-14T14:08:05.746Z,4.53
2023-04-14T14:10:32.936Z,5.18
2023-04-14T14:13:00.211Z,5.28
2023-04-14T14:15:27.537Z,4.80
2023-04-14T14:17:55.252Z,5.95
2023-04-14T14:20:22.590Z,5.88
2023-04-14T14:22:50.046Z,5.53
2023-04-14T14:25:21.051Z,6.13
2023-04-14T14:27:50.244Z,6.10
2023-04-14T14:30:17.558Z,11.90
2023-04-14T14:32:44.820Z,18.92
2023-04-14T14:35:12.233Z,20.05
2023-04-14T14:37:40.922Z,21.42
2023-04-14T14:40:09.255Z,22.80
2023-04-14T14:42:36.704Z,23.73
2023-04-14T14:45:05.087Z,24.90
2023-04-14T14:47:34.220Z,25.13
2023-04-14T14:50:05.990Z,26.42
2023-04-14T14:52:35.350Z,27.02
2023-04-14T14:55:03.574Z,27.90
2023-04-14T14:57:31.352Z,25.98
2023-04-14T14:59:58.809Z,28.23
2023-04-14T15:02:26.778Z,29.17
2023-04-14T15:04:54.784Z,29.30
2023-04-14T15:07:22.489Z,31.95
2023-04-14T15:09:51.074Z,30.80
2023-04-14T15:12:18.452Z,31.05
2023-04-14T15:14:45.927Z,30.13
2023-04-14T15:17:13.453Z,31.75
2023-04-14T15:19:42.118Z,33.28
2023-04-14T15:22:10.552Z,33.30
2023-04-14T15:24:37.989Z,33.65
2023-04-14T15:27:05.200Z,36.88
2023-04-14T15:29:32.512Z,38.08
2023-04-14T15:32:01.052Z,35.92
2023-04-14T15:34:29.726Z,204.10
2023-04-14T15:36:57.202Z,48.65
2023-04-14T15:39:24.613Z,48.85
2023-04-14T15:41:52.191Z,41.80
2023-04-14T15:44:19.624Z,74.25
2023-04-14T15:46:47.016Z,55.95
2023-04-14T15:49:14.527Z,267.35
2023-04-14T15:51:42.026Z,59.05
2023-04-14T15:54:09.301Z,46.90
2023-04-14T15:56:36.904Z,46.22
2023-04-14T15:59:04.304Z,47.70
2023-04-14T16:01:31.745Z,48.55
2023-04-14T16:03:59.176Z,48.78
2023-04-14T16:06:26.708Z,50.97
2023-04-14T16:08:54.054Z,49.67
2023-04-14T16:11:21.530Z,49.92
2023-04-14T16:13:48.979Z,75.70
2023-04-14T16:16:17.925Z,78.47
2023-04-14T16:18:45.709Z,52.63
2023-04-14T16:21:13.656Z,51.92
2023-04-14T16:23:42.182Z,47.92
2023-04-14T16:26:09.428Z,49.17
2023-04-14T16:28:36.663Z,50.50
2023-04-14T16:31:04.046Z,48.47
2023-04-14T16:33:34.389Z,49.60
2023-04-14T16:36:09.085Z,47.72
2023-04-14T16:38:36.516Z,48.90
2023-04-14T16:41:03.952Z,48.85
2023-04-14T16:43:31.523Z,57.28
2023-04-14T16:46:07.152Z,47.92
2023-04-14T16:48:35.970Z,44.75
2023-04-14T16:51:08.722Z,49.03
2023-04-14T16:53:38.672Z,51.75
2023-04-14T16:56:11.359Z,49.35
2023-04-14T16:58:39.957Z,50.90
2023-04-14T17:01:07.583Z,49.67
2023-04-14T17:03:35.287Z,50.67
2023-04-14T17:06:03.705Z,50.65
2023-04-14T17:08:31.254Z,51.03
2023-04-14T17:10:58.642Z,47.80
2023-04-14T17:13:27.038Z,46.83
2023-04-14T17:16:05.652Z,47.70
2023-04-14T17:18:36.650Z,46.75
2023-04-14T17:21:06.214Z,47.83
2023-04-14T17:23:37.945Z,48.60
2023-04-14T17:26:05.975Z,45.83
2023-04-14T17:28:34.862Z,45.92
2023-04-14T17:31:04.368Z,46.85
2023-04-14T17:33:32.539Z,43.28
2023-04-14T17:35:59.744Z,45.65
2023-04-14T17:38:27.232Z,45.22
2023-04-14T17:40:54.697Z,42.88
2023-04-14T17:43:22.687Z,41.55
2023-04-14T17:45:50.726Z,42.08
2023-04-14T17:48:18.156Z,41.35
2023-04-14T17:50:46.512Z,39.88
2023-04-14T17:53:15.671Z,43.38
2023-04-14T17:55:43.743Z,44.75
2023-04-14T17:58:11.203Z,42.92
2023-04-14T18:00:39.314Z,40.95
2023-04-14T18:03:06.797Z,42.03
2023-04-14T18:05:34.149Z,39.55
2023-04-14T18:08:01.552Z,46.05
2023-04-14T18:10:29.079Z,41.38
2023-04-14T18:12:56.591Z,41.03
2023-04-14T18:15:23.927Z,40.42
2023-04-14T18:17:51.439Z,44.05
2023-04-14T18:20:24.718Z,38.10
2023-04-14T18:22:54.285Z,38.85
2023-04-14T18:25:21.697Z,39.28
2023-04-14T18:30:19.468Z,41.20
2023-04-14T18:32:46.806Z,42.38
2023-04-14T18:35:15.812Z,39.63
2023-04-14T18:37:43.347Z,43.55
2023-04-14T18:40:10.964Z,43.88
2023-04-14T18:42:39.151Z,45.03
2023-04-14T18:45:07.431Z,41.50
2023-04-14T18:47:35.000Z,47.55
2023-04-14T18:50:04.200Z,56.33
2023-04-14T18:52:31.533Z,53.70
2023-04-14T18:54:59.085Z,63.03
2023-04-14T18:57:26.899Z,53.58
2023-04-14T18:59:54.192Z,50.97
2023-04-14T19:02:21.648Z,47.80
2023-04-14T19:04:51.918Z,48.58
2023-04-14T19:07:19.354Z,53.53
2023-04-14T19:09:46.671Z,52.03
2023-04-14T19:12:25.507Z,52.95
2023-04-14T19:14:55.658Z,53.25
2023-04-14T19:17:23.038Z,55.30
2023-04-14T19:19:50.510Z,50.20
2023-04-14T19:22:17.891Z,56.00
2023-04-14T19:24:45.130Z,55.53
2023-04-14T19:27:12.295Z,58.13
2023-04-14T19:29:39.699Z,62.72
2023-04-14T19:32:07.141Z,69.38
2023-04-14T19:34:34.619Z,60.42
2023-04-14T19:37:04.118Z,53.80
2023-04-14T19:39:31.908Z,92.47
2023-04-14T19:41:59.417Z,78.15
2023-04-14T19:44:27.268Z,69.95
2023-04-14T19:46:54.787Z,75.32
2023-04-14T19:49:22.841Z,68.75
2023-04-14T19:51:51.006Z,57.20
2023-04-14T19:54:20.401Z,56.83
2023-04-14T19:56:47.821Z,57.53
2023-04-14T19:59:15.421Z,89.03
2023-04-14T20:01:42.775Z,86.75
2023-04-14T20:04:12.822Z,55.78
2023-04-14T20:06:42.919Z,56.60
2023-04-14T20:09:10.620Z,95.55
2023-04-14T20:12:03.297Z,56.33
2023-04-14T20:14:30.743Z,66.28
2023-04-14T20:16:58.255Z,56.67
2023-04-14T20:19:25.844Z,53.13
2023-04-14T20:22:17.911Z,51.00
2023-04-14T20:25:09.896Z,56.35
2023-04-14T20:28:02.326Z,97.22
2023-04-14T20:30:32.255Z,98.47
2023-04-14T20:33:04.706Z,82.63
2023-04-14T20:35:36.263Z,59.58
2023-04-14T20:38:05.322Z,57.75
2023-04-14T20:40:32.995Z,92.90
2023-04-14T20:43:00.705Z,63.53
2023-04-14T20:45:27.962Z,57.90
2023-04-14T20:47:55.505Z,73.70
2023-04-14T20:50:23.388Z,61.72
2023-04-14T20:52:50.828Z,64.13
2023-04-14T20:55:19.943Z,60.88
2023-04-14T20:57:48.209Z,60.60
2023-04-14T21:00:16.804Z,67.10
2023-04-14T21:02:45.516Z,59.08
2023-04-14T21:05:15.492Z,54.45
2023-04-14T21:07:43.772Z,58.10
2023-04-14T21:10:13.074Z,50.97
2023-04-14T21:13:54.296Z,36.30
2023-04-14T21:15:51.872Z,39.13
2023-04-14T21:18:15.470Z,7.80
2023-04-14T21:20:43.581Z,5.00
2023-04-14T21:23:10.884Z,3.72
2023-04-14T21:25:38.539Z,3.00
2023-04-14T21:28:06.254Z,1.58
2023-04-14T21:30:34.350Z,2.33
2023-04-14T21:33:01.983Z,3.22
2023-04-14T21:35:29.691Z,4.20
2023-04-14T21:37:57.533Z,3.60
2023-04-14T21:40:25.118Z,2.60
2023-04-14T21:42:53.028Z,1.10
2023-04-14T21:45:20.541Z,1.67
2023-04-14T21:47:48.005Z,1.10
2023-04-14T21:50:15.432Z,1.45
2023-04-14T21:52:42.727Z,1.10
2023-04-14T21:55:10.510Z,1.10
2023-04-14T21:57:44.390Z,1.00
2023-04-14T22:00:20.484Z,0.40
2023-04-14T22:02:48.358Z,0.90
2023-04-14T22:05:16.103Z,1.52
2023-04-14T22:07:43.363Z,0.50
2023-04-14T22:10:12.238Z,0.82
2023-04-14T22:12:40.017Z,0.40
2023-04-14T22:15:08.818Z,0.38
2023-04-14T22:17:37.575Z,0.82
2023-04-14T22:20:06.536Z,0.45
2023-04-14T22:22:34.876Z,0.45
2023-04-14T22:25:04.265Z,0.70
2023-04-14T22:27:33.973Z,0.30
2023-04-14T22:30:02.713Z,0.40
2023-04-14T22:32:30.035Z,0.40
2023-04-14T22:34:57.374Z,0.35
2023-04-14T22:37:24.591Z,0.40
2023-04-14T22:39:52.062Z,0.30
2023-04-14T22:42:19.275Z,0.30
2023-04-14T22:44:48.161Z,0.40
2023-04-14T22:47:15.643Z,0.45
2023-04-14T22:49:42.932Z,0.60
2023-04-14T22:52:10.184Z,0.70
2023-04-14T22:54:37.506Z,0.60
2023-04-14T22:57:05.168Z,0.50
2023-04-14T22:59:32.497Z,0.30
2023-04-14T23:01:59.790Z,0.35
2023-04-14T23:04:27.169Z,0.30
2023-04-14T23:06:54.727Z,0.38
2023-04-14T23:09:22.007Z,0.20
2023-04-14T23:11:49.428Z,0.40
2023-04-14T23:14:16.979Z,0.40
2023-04-14T23:16:44.174Z,0.17
2023-04-14T23:19:11.711Z,0.20
2023-04-14T23:21:38.979Z,0.40
2023-04-14T23:24:07.508Z,0.30
2023-04-14T23:26:34.855Z,0.20
2023-04-14T23:29:02.369Z,0.60
2023-04-14T23:31:29.854Z,0.20
2023-04-14T23:33:57.278Z,0.20
2023-04-14T23:36:24.499Z,0.10
2023-04-14T23:38:51.789Z,0.20
2023-04-14T23:41:19.527Z,0.10
2023-04-14T23:43:49.206Z,0.10
2023-04-14T23:46:16.501Z,0.10
2023-04-14T23:48:43.745Z,0.28
2023-04-14T23:51:21.667Z,0.10
2023-04-14T23:53:49.701Z,0.20
2023-04-14T23:56:17.691Z,0.20
2023-04-14T23:58:45.071Z,0.30
